Time;durP1;ratioP1;P1;durP2;ratioP2;P2;SDS_P1;SDS_P2;PMS_P1;PMS_P2;Temp;Humidity;BMP_temperature;BMP_pressure;BME280_temperature;BME280_humidity;BME280_pressure;Samples;Min_cycle;Max_cycle;Signal;HPM_P1;HPM_P2
2023/05/17 00:02:09;;;;;;;12.88;5.72;;;;;;;17.37;68.30;98926.75;7685001;32;40595;-83
2023/05/17 00:06:26;;;;;;;11.90;5.60;;;;;;;17.12;69.01;98929.38;7663278;32;38744;-83
2023/05/17 00:10:42;;;;;;;11.23;5.85;;;;;;;17.27;68.79;98937.00;7683687;32;38130;-82
2023/05/17 00:14:58;;;;;;;13.60;5.57;;;;;;;17.30;68.78;98934.72;7667013;32;39684;-82
2023/05/17 00:19:15;;;;;;;10.95;5.40;;;;;;;17.37;68.56;98938.56;7659479;32;40922;-82
2023/05/17 00:23:31;;;;;;;14.85;6.28;;;;;;;17.39;68.51;98932.72;7671171;32;37585;-84
2023/05/17 00:27:48;;;;;;;10.90;5.28;;;;;;;17.43;67.98;98925.38;7668302;32;37269;-84
2023/05/17 00:32:04;;;;;;;11.12;5.93;;;;;;;17.48;67.72;98927.91;7635045;32;39263;-82
2023/05/17 00:36:21;;;;;;;13.85;4.85;;;;;;;17.46;67.43;98914.47;7643565;32;39626;-83
2023/05/17 00:40:37;;;;;;;15.07;5.82;;;;;;;17.41;67.83;98913.91;7631975;32;37560;-83
2023/05/17 00:44:54;;;;;;;16.60;5.85;;;;;;;17.32;68.22;98921.44;7633671;32;37128;-83
2023/05/17 00:49:10;;;;;;;12.10;5.60;;;;;;;17.31;68.27;98920.63;7655594;32;40036;-83
2023/05/17 00:53:29;;;;;;;12.45;5.43;;;;;;;17.22;68.11;98915.19;7657654;32;40932;-83
2023/05/17 00:57:46;;;;;;;9.25;5.25;;;;;;;17.05;68.02;98899.59;7656634;32;37876;-83
2023/05/17 01:02:03;;;;;;;15.40;5.75;;;;;;;17.21;67.17;98901.75;7644218;32;37364;-82
2023/05/17 01:06:20;;;;;;;12.85;4.82;;;;;;;17.26;66.99;98910.63;7644497;32;39342;-83
2023/05/17 01:11:06;;;;;;;9.93;5.00;;;;;;;17.05;67.31;98912.59;7632424;32;40949;-82
2023/05/17 01:15:45;;;;;;;10.65;5.47;;;;;;;17.25;66.39;98925.53;7610613;32;37715;-83
2023/05/17 01:20:11;;;;;;;10.32;5.40;;;;;;;16.91;67.08;98928.56;7643479;32;37866;-84
2023/05/17 01:24:57;;;;;;;12.20;5.62;;;;;;;17.19;65.98;98926.06;7631560;32;39443;-83
2023/05/17 01:29:15;;;;;;;11.15;5.12;;;;;;;17.21;65.51;98930.12;7634807;32;39916;-82
2023/05/17 01:33:31;;;;;;;16.05;5.97;;;;;;;17.00;66.10;98929.31;7643868;32;37624;-84
2023/05/17 01:37:48;;;;;;;12.48;5.70;;;;;;;17.11;66.00;98935.22;7657160;32;38306;-83
2023/05/17 01:42:05;;;;;;;17.40;6.32;;;;;;;17.06;66.34;98933.47;7657403;32;40120;-82
2023/05/17 01:46:27;;;;;;;14.18;5.85;;;;;;;16.99;67.29;98927.69;7656830;32;40773;-83
2023/05/17 01:50:47;;;;;;;17.03;5.97;;;;;;;17.02;67.25;98911.31;7643349;32;38860;-83
2023/05/17 01:55:17;;;;;;;15.75;6.00;;;;;;;17.09;67.02;98908.00;7657360;32;36790;-83
2023/05/17 01:59:36;;;;;;;13.88;6.25;;;;;;;16.88;67.71;98908.84;7656889;32;39063;-85
2023/05/17 02:03:53;;;;;;;12.75;5.53;;;;;;;17.02;67.39;98903.06;7676819;32;39930;-83
2023/05/17 02:08:09;;;;;;;27.55;6.53;;;;;;;17.00;67.62;98885.25;7678753;32;37653;-83
2023/05/17 02:12:26;;;;;;;11.75;5.55;;;;;;;16.62;68.50;98894.41;7656784;32;37880;-83
2023/05/17 02:16:42;;;;;;;10.15;5.30;;;;;;;16.84;67.29;98898.81;7677345;32;39515;-83
2023/05/17 02:20:59;;;;;;;13.62;5.75;;;;;;;16.80;66.94;98904.16;7673059;32;40806;-83
2023/05/17 02:25:16;;;;;;;13.18;6.55;;;;;;;16.70;67.07;98904.56;7659044;32;37544;-83
2023/05/17 02:29:33;;;;;;;10.73;5.45;;;;;;;16.49;68.31;98916.34;7671357;32;37945;-84
2023/05/17 02:33:49;;;;;;;90.60;8.32;;;;;;;16.73;67.64;98925.91;7681839;32;39366;-83
2023/05/17 02:38:05;;;;;;;15.52;5.78;;;;;;;16.67;67.43;98932.75;7682362;32;40694;-83
2023/05/17 02:42:22;;;;;;;12.00;6.43;;;;;;;16.32;69.02;98949.44;7677368;32;37857;-83
2023/05/17 02:46:38;;;;;;;13.70;5.93;;;;;;;16.44;68.88;98946.78;7681982;32;37840;-82
2023/05/17 02:50:55;;;;;;;11.25;5.45;;;;;;;16.61;68.65;98934.87;7680891;32;40104;-82
2023/05/17 02:55:11;;;;;;;12.57;6.60;;;;;;;16.63;68.54;98948.31;7659415;32;39916;-82
2023/05/17 02:59:27;;;;;;;11.85;6.65;;;;;;;16.70;68.58;98960.41;7656922;32;38447;-83
2023/05/17 03:03:43;;;;;;;11.27;5.65;;;;;;;16.73;68.81;98958.94;7659404;32;38294;-82
2023/05/17 03:08:00;;;;;;;11.65;6.43;;;;;;;16.72;69.15;98973.81;7661067;32;39305;-82
2023/05/17 03:12:16;;;;;;;10.73;5.85;;;;;;;16.77;69.06;98981.88;7674830;32;40247;-82
2023/05/17 03:16:33;;;;;;;14.73;7.15;;;;;;;16.97;68.56;98987.78;7685617;32;38768;-82
2023/05/17 03:20:50;;;;;;;16.52;7.28;;;;;;;17.04;68.78;98986.13;7684173;32;36817;-83
2023/05/17 03:25:06;;;;;;;12.27;7.30;;;;;;;16.94;69.35;98988.47;7675713;32;39370;-81
2023/05/17 03:29:23;;;;;;;15.05;6.28;;;;;;;17.01;69.25;98992.28;7670079;32;40041;-83
2023/05/17 03:33:39;;;;;;;12.98;6.62;;;;;;;17.23;68.42;98988.41;7664390;32;37555;-84
2023/05/17 03:37:56;;;;;;;13.13;7.00;;;;;;;17.31;68.09;98989.47;7659040;32;37248;-83
2023/05/17 03:42:12;;;;;;;16.62;7.20;;;;;;;17.16;68.71;98988.16;7673758;32;39371;-82
2023/05/17 03:46:28;;;;;;;17.80;7.53;;;;;;;17.26;68.52;98998.78;7685433;32;39999;-83
2023/05/17 03:50:45;;;;;;;14.95;6.93;;;;;;;17.13;69.08;99007.28;7658374;32;38099;-83
2023/05/17 03:55:01;;;;;;;474.62;23.67;;;;;;;17.21;69.05;98998.16;7658742;32;37142;-83
2023/05/17 03:59:17;;;;;;;116.53;9.30;;;;;;;16.89;70.52;98990.25;7676336;32;39999;-83
2023/05/17 04:03:36;;;;;;;11.82;6.30;;;;;;;16.77;70.58;99014.91;7684652;32;39964;-84
2023/05/17 04:07:52;;;;;;;99.82;8.65;;;;;;;17.02;69.63;99007.69;7669157;32;37013;-83
2023/05/17 04:12:12;;;;;;;15.50;6.97;;;;;;;16.99;69.79;99015.78;7669891;32;37279;-83
2023/05/17 04:16:28;;;;;;;12.98;7.18;;;;;;;17.08;69.62;99019.31;7658796;32;40112;-83
2023/05/17 04:20:44;;;;;;;12.68;6.35;;;;;;;16.89;70.32;99026.06;7670933;32;40099;-83
2023/05/17 04:25:01;;;;;;;18.50;7.35;;;;;;;17.14;69.53;99023.47;7674536;32;38076;-82
2023/05/17 04:29:17;;;;;;;12.93;7.35;;;;;;;17.11;69.73;99035.16;7674858;32;38049;-83
2023/05/17 04:33:35;;;;;;;13.95;7.45;;;;;;;17.16;69.64;99040.47;7684095;32;40177;-83
2023/05/17 04:37:52;;;;;;;17.48;6.93;;;;;;;17.24;69.47;99049.81;7684247;32;40002;-83
2023/05/17 04:42:09;;;;;;;17.30;6.93;;;;;;;17.48;68.39;99060.19;7684237;32;38704;-82
2023/05/17 04:46:25;;;;;;;13.93;6.93;;;;;;;17.17;69.87;99050.34;7663444;32;36985;-82
2023/05/17 04:50:45;;;;;;;23.67;7.03;;;;;;;17.20;70.11;99037.88;7658987;32;39407;-83
2023/05/17 04:55:02;;;;;;;14.00;6.70;;;;;;;17.14;70.66;99039.97;7663248;32;40759;-83
2023/05/17 04:59:18;;;;;;;12.20;6.82;;;;;;;17.27;70.12;99038.94;7683980;32;38692;-82
2023/05/17 05:03:35;;;;;;;16.98;7.30;;;;;;;17.38;70.02;99049.56;7663934;32;37961;-83
2023/05/17 05:07:52;;;;;;;12.55;7.35;;;;;;;17.49;69.06;99069.25;7657947;32;39399;-83
2023/05/17 05:12:08;;;;;;;22.02;8.98;;;;;;;17.20;70.21;99079.19;7657952;32;40031;-82
2023/05/17 05:16:25;;;;;;;15.30;8.95;;;;;;;17.07;70.46;99081.00;7677337;32;37987;-83
2023/05/17 05:20:42;;;;;;;19.60;8.55;;;;;;;17.19;70.29;99094.06;7659364;32;37587;-83
2023/05/17 05:24:58;;;;;;;16.67;8.63;;;;;;;17.33;69.84;99102.88;7657386;32;39285;-84
2023/05/17 05:29:14;;;;;;;15.00;8.68;;;;;;;17.38;69.75;99104.66;7675717;32;40173;-83
2023/05/17 05:33:31;;;;;;;20.60;9.95;;;;;;;17.42;69.87;99106.41;7674059;32;37504;-84
2023/05/17 05:37:48;;;;;;;18.15;9.93;;;;;;;17.50;69.87;99090.94;7674641;32;37399;-83
2023/05/17 05:42:05;;;;;;;17.90;9.73;;;;;;;17.39;70.37;99098.00;7657654;32;39309;-82
2023/05/17 05:46:21;;;;;;;17.17;10.07;;;;;;;17.42;70.28;99100.09;7657359;32;40531;-83
2023/05/17 05:50:39;;;;;;;17.12;9.65;;;;;;;17.47;70.29;99113.66;7675824;32;37662;-83
2023/05/17 05:54:56;;;;;;;15.20;9.85;;;;;;;17.45;70.71;99122.28;7666141;32;37385;-83
2023/05/17 05:59:12;;;;;;;18.10;10.65;;;;;;;17.45;70.57;99130.56;7683326;32;40087;-84
2023/05/17 06:03:29;;;;;;;14.45;8.88;;;;;;;17.58;69.85;99136.16;7677221;32;40342;-85
2023/05/17 06:07:45;;;;;;;17.62;10.52;;;;;;;17.73;69.43;99121.78;7656902;32;37941;-83
2023/05/17 06:12:02;;;;;;;23.05;11.18;;;;;;;17.49;69.86;99132.63;7656750;32;37278;-82
2023/05/17 06:16:18;;;;;;;20.67;10.35;;;;;;;17.29;70.38;99139.72;7673631;32;40072;-82
2023/05/17 06:20:35;;;;;;;21.55;10.82;;;;;;;17.31;70.35;99138.22;7667807;32;40094;-84
2023/05/17 06:24:51;;;;;;;20.45;10.32;;;;;;;17.55;69.73;99139.56;7665524;32;37729;-84
2023/05/17 06:29:08;;;;;;;19.35;9.20;;;;;;;17.53;70.10;99144.59;7669816;32;37373;-85
2023/05/17 06:33:24;;;;;;;17.90;9.05;;;;;;;17.71;69.60;99156.31;7670567;32;40188;-84
2023/05/17 06:37:40;;;;;;;15.95;8.85;;;;;;;17.76;69.72;99150.59;7671443;32;40874;-83
2023/05/17 06:41:57;;;;;;;18.08;8.13;;;;;;;17.81;69.57;99161.44;7671659;32;38683;-84
2023/05/17 06:46:13;;;;;;;20.58;9.02;;;;;;;17.95;68.93;99150.97;7669504;32;36889;-84
2023/05/17 06:50:30;;;;;;;16.52;9.27;;;;;;;17.84;68.89;99160.75;7683529;32;39293;-83
2023/05/17 06:54:47;;;;;;;17.58;8.95;;;;;;;17.71;68.89;99170.09;7686086;32;39711;-81
2023/05/17 06:59:04;;;;;;;19.35;9.18;;;;;;;17.50;69.85;99159.84;7686054;32;38134;-84
2023/05/17 07:03:20;;;;;;;19.80;9.82;;;;;;;17.64;69.63;99167.88;7686259;32;37142;-83
2023/05/17 07:07:37;;;;;;;19.30;9.35;;;;;;;17.48;70.15;99175.91;7649248;32;39296;-83
2023/05/17 07:11:53;;;;;;;19.55;10.25;;;;;;;17.79;69.20;99169.22;7659705;32;40881;-84
2023/05/17 07:16:10;;;;;;;19.35;9.95;;;;;;;17.58;68.90;99175.53;7663749;32;37623;-84
2023/05/17 07:20:26;;;;;;;21.85;10.18;;;;;;;17.74;68.97;99180.47;7685961;32;37952;-83
2023/05/17 07:24:45;;;;;;;22.58;10.40;;;;;;;17.55;69.73;99180.91;7685831;32;40113;-84
2023/05/17 07:29:01;;;;;;;23.27;10.50;;;;;;;17.55;69.29;99175.38;7674936;32;40746;-83
2023/05/17 07:33:18;;;;;;;20.80;10.07;;;;;;;17.07;70.72;99193.91;7659091;32;38044;-83
2023/05/17 07:37:34;;;;;;;18.48;8.50;;;;;;;17.27;69.91;99195.94;7669211;32;37935;-82
2023/05/17 07:41:51;;;;;;;18.98;9.13;;;;;;;16.94;71.08;99208.72;7659459;32;40102;-83
2023/05/17 07:46:07;;;;;;;19.50;10.35;;;;;;;17.05;70.53;99201.72;7659238;32;40104;-84
2023/05/17 07:50:24;;;;;;;18.70;10.32;;;;;;;16.98;70.89;99201.41;7659678;32;37965;-83
2023/05/17 07:54:41;;;;;;;20.70;10.75;;;;;;;16.90;71.40;99205.78;7667840;32;36887;-84
2023/05/17 07:58:58;;;;;;;18.52;10.02;;;;;;;16.45;72.67;99206.19;7663446;32;39920;-88
2023/05/17 08:03:14;;;;;;;13.27;7.10;;;;;;;16.57;72.35;99208.28;7665951;32;40734;-87
2023/05/17 08:07:32;;;;;;;13.13;7.68;;;;;;;16.56;71.54;99210.22;7671604;32;39483;-86
2023/05/17 08:11:48;;;;;;;11.10;6.45;;;;;;;16.65;71.14;99223.97;7658939;32;37184;-85
2023/05/17 08:16:07;;;;;;;14.23;6.72;;;;;;;15.83;74.22;99240.25;7659571;32;39274;-85
2023/05/17 08:20:29;;;;;;;10.77;6.30;;;;;;;15.89;73.95;99234.31;7678280;32;40809;-85
2023/05/17 08:24:46;;;;;;;9.43;5.68;;;;;;;15.88;73.55;99232.66;7685191;32;37932;-85
2023/05/17 08:29:04;;;;;;;10.55;5.65;;;;;;;16.12;73.33;99220.41;7685030;32;37258;-84
2023/05/17 08:33:21;;;;;;;11.00;6.12;;;;;;;16.38;72.79;99223.16;7683651;32;40117;-85
2023/05/17 08:37:38;;;;;;;16.00;9.32;;;;;;;16.04;73.35;99229.47;7684978;32;40598;-85
2023/05/17 08:41:58;;;;;;;11.12;6.12;;;;;;;16.52;71.78;99236.75;7684801;32;38682;-83
2023/05/17 08:46:15;;;;;;;13.50;6.40;;;;;;;16.60;71.62;99241.44;7674245;32;37314;-85
2023/05/17 08:50:33;;;;;;;9.43;5.50;;;;;;;16.35;72.18;99248.59;7675039;32;39262;-85
2023/05/17 08:54:49;;;;;;;12.98;6.43;;;;;;;16.48;71.39;99255.06;7668560;32;40890;-84
2023/05/17 08:59:07;;;;;;;14.40;5.85;;;;;;;16.47;70.94;99258.94;7669345;32;38535;-86
2023/05/17 09:03:25;;;;;;;11.30;6.03;;;;;;;16.23;71.91;99273.16;7668275;32;36476;-86
2023/05/17 09:07:42;;;;;;;11.12;6.15;;;;;;;16.48;71.19;99268.81;7660944;32;39972;-88
2023/05/17 09:12:02;;;;;;;12.98;6.20;;;;;;;16.62;71.11;99272.19;7658257;32;41191;-89
2023/05/17 09:16:20;;;;;;;14.30;6.75;;;;;;;16.73;70.79;99277.37;7664389;32;37809;-88
2023/05/17 09:20:38;;;;;;;14.10;6.93;;;;;;;16.76;71.25;99261.00;7669099;32;37199;-89
2023/05/17 09:24:58;;;;;;;11.45;6.28;;;;;;;17.07;70.76;99260.00;7645717;32;39372;-89
2023/05/17 09:29:16;;;;;;;10.43;6.03;;;;;;;17.24;70.37;99264.66;7659386;32;39872;-88
2023/05/17 09:33:32;;;;;;;12.93;5.90;;;;;;;17.16;70.04;99258.06;7660414;32;38570;-87
2023/05/17 09:37:48;;;;;;;14.98;6.10;;;;;;;16.78;70.41;99260.69;7672205;32;37147;-88
2023/05/17 09:42:05;;;;;;;10.48;5.90;;;;;;;16.69;70.83;99271.72;7657820;32;40114;-88
2023/05/17 09:46:22;;;;;;;13.30;6.15;;;;;;;16.92;69.80;99266.88;7660163;32;40656;-88
2023/05/17 09:50:44;;;;;;;12.82;6.53;;;;;;;16.42;70.99;99273.66;7683818;32;37787;-88
2023/05/17 09:55:01;;;;;;;10.23;6.30;;;;;;;16.83;70.76;99272.34;7667728;32;37252;-90
2023/05/17 09:59:18;;;;;;;14.25;5.93;;;;;;;16.63;71.38;99267.53;7657473;32;39333;-86
2023/05/17 10:03:38;;;;;;;13.85;6.50;;;;;;;17.11;70.58;99272.00;7664886;32;40771;-84
2023/05/17 10:07:55;;;;;;;12.82;6.68;;;;;;;17.39;69.86;99274.34;7683430;32;38697;-84
2023/05/17 10:12:16;;;;;;;13.40;6.05;;;;;;;17.19;70.46;99275.84;7686566;32;37095;-86
2023/05/17 10:16:33;;;;;;;13.05;6.12;;;;;;;17.15;68.81;99277.66;7666281;32;39246;-87
2023/05/17 10:20:50;;;;;;;11.90;6.78;;;;;;;17.17;69.27;99273.44;7673080;32;39671;-84
2023/05/17 10:25:08;;;;;;;13.25;6.10;;;;;;;17.26;69.63;99279.75;7678047;32;37660;-87
2023/05/17 10:29:24;;;;;;;12.77;6.03;;;;;;;17.19;69.56;99282.16;7659942;32;37139;-86
2023/05/17 10:33:43;;;;;;;11.15;6.53;;;;;;;17.13;70.03;99297.25;7659992;32;38861;-86
2023/05/17 10:37:59;;;;;;;15.45;7.53;;;;;;;17.15;69.51;99300.50;7646509;32;39008;-86
2023/05/17 10:42:16;;;;;;;14.57;7.18;;;;;;;16.88;70.18;99313.50;7659975;32;38096;-86
2023/05/17 10:46:33;;;;;;;14.48;6.62;;;;;;;17.13;69.53;99308.28;7665211;32;37177;-85
2023/05/17 10:50:52;;;;;;;11.95;7.20;;;;;;;17.04;70.17;99313.81;7686103;32;39933;-86
2023/05/17 10:55:23;;;;;;;10.95;7.12;;;;;;;16.60;70.69;99318.50;7673744;32;39943;-80
2023/05/17 10:59:56;;;;;;;11.68;6.70;;;;;;;16.82;71.10;99320.28;7668282;32;37939;-84
2023/05/17 11:04:36;;;;;;;11.70;6.60;;;;;;;16.75;71.21;99325.47;7659772;32;37242;-81
2023/05/17 11:09:17;;;;;;;10.07;5.85;;;;;;;16.64;71.14;99329.66;7652564;32;39361;-85
2023/05/17 11:13:34;;;;;;;7.28;4.55;;;;;;;16.98;70.66;99333.56;7663769;32;40085;-84
2023/05/17 11:17:52;;;;;;;9.52;4.82;;;;;;;16.64;70.62;99332.41;7684363;32;38587;-86
2023/05/17 11:22:14;;;;;;;8.32;4.10;;;;;;;16.93;70.34;99325.47;7684897;32;37047;-86
2023/05/17 11:26:35;;;;;;;8.75;3.85;;;;;;;17.02;70.33;99329.03;7671066;32;40319;-86
2023/05/17 11:30:59;;;;;;;5.93;3.58;;;;;;;17.19;69.88;99333.69;7672130;32;39579;-86
2023/05/17 11:35:17;;;;;;;4.78;3.20;;;;;;;16.65;71.63;99339.53;7646600;32;38212;-85
2023/05/17 11:39:33;;;;;;;7.87;3.40;;;;;;;16.55;71.64;99340.66;7659397;32;37047;-85
2023/05/17 11:43:50;;;;;;;5.62;3.37;;;;;;;16.97;70.33;99343.78;7659458;32;39129;-85
2023/05/17 11:48:06;;;;;;;6.55;3.72;;;;;;;17.11;69.91;99340.84;7662192;32;41523;-87
2023/05/17 11:52:23;;;;;;;6.68;4.10;;;;;;;16.83;71.09;99354.94;7660977;32;38744;-86
2023/05/17 11:56:40;;;;;;;7.12;4.22;;;;;;;17.28;69.90;99362.03;7659124;32;37995;-86
2023/05/17 12:00:58;;;;;;;5.72;3.67;;;;;;;17.26;70.08;99361.56;7659221;32;38427;-86
2023/05/17 12:05:19;;;;;;;8.07;4.00;;;;;;;17.61;68.93;99355.97;7659641;32;41056;-86
2023/05/17 12:09:37;;;;;;;10.40;4.55;;;;;;;17.06;71.15;99357.53;7685410;32;38953;-85
2023/05/17 12:13:53;;;;;;;9.45;4.40;;;;;;;17.10;70.84;99369.53;7685306;32;36915;-85
2023/05/17 12:18:10;;;;;;;8.35;4.37;;;;;;;17.27;69.45;99365.94;7684299;32;39571;-85
2023/05/17 12:22:26;;;;;;;11.70;4.82;;;;;;;17.38;69.15;99369.94;7685260;32;40061;-85
2023/05/17 12:26:45;;;;;;;10.15;5.00;;;;;;;16.69;70.36;99379.03;7685045;32;37882;-86
2023/05/17 12:31:02;;;;;;;7.57;3.72;;;;;;;16.88;70.38;99384.25;7685077;32;36086;-85
2023/05/17 12:35:18;;;;;;;5.47;3.40;;;;;;;17.20;68.27;99382.94;7683865;32;39428;-85
2023/05/17 12:39:35;;;;;;;5.55;3.37;;;;;;;16.81;68.58;99387.47;7685111;32;39879;-85
2023/05/17 12:43:51;;;;;;;6.32;3.15;;;;;;;16.97;68.35;99381.50;7685240;32;37668;-85
2023/05/17 12:48:28;;;;;;;4.50;3.20;;;;;;;17.05;68.41;99370.47;7672210;32;35556;-85
2023/05/17 12:52:44;;;;;;;7.12;3.30;;;;;;;17.01;68.56;99380.53;7671409;32;39490;-86
2023/05/17 12:57:10;;;;;;;7.65;4.07;;;;;;;16.99;67.55;99369.03;7684834;32;39996;-86
2023/05/17 13:01:42;;;;;;;7.75;3.60;;;;;;;16.95;67.39;99378.28;7684787;32;38941;-85
2023/05/17 13:06:08;;;;;;;7.00;3.45;;;;;;;17.34;66.62;99374.50;7650356;32;38096;-87
2023/05/17 13:10:25;;;;;;;6.43;3.60;;;;;;;17.32;66.17;99381.50;7664248;32;39511;-86
2023/05/17 13:14:47;;;;;;;4.10;2.50;;;;;;;17.16;66.95;99382.00;7684543;32;40895;-86
2023/05/17 13:19:14;;;;;;;5.37;2.97;;;;;;;17.04;67.15;99393.66;7671602;32;37641;-86
2023/05/17 13:23:31;;;;;;;6.97;2.87;;;;;;;17.03;66.99;99405.81;7672015;32;37849;-86
2023/05/17 13:27:48;;;;;;;3.62;2.80;;;;;;;17.28;65.82;99397.84;7684526;32;39856;-86
2023/05/17 13:32:05;;;;;;;5.78;3.03;;;;;;;16.75;67.73;99402.53;7684225;32;40848;-86
2023/05/17 13:36:22;;;;;;;4.70;3.12;;;;;;;15.98;70.49;99412.22;7684216;32;37955;-86
2023/05/17 13:40:39;;;;;;;4.82;2.87;;;;;;;16.30;68.90;99406.34;7682593;32;37035;-85
2023/05/17 13:44:56;;;;;;;5.03;2.45;;;;;;;16.03;69.74;99407.37;7667015;32;39310;-85
2023/05/17 13:49:12;;;;;;;3.50;2.70;;;;;;;16.06;69.40;99398.50;7657772;32;39969;-86
2023/05/17 13:53:29;;;;;;;6.68;2.78;;;;;;;16.43;68.96;99390.81;7657562;32;38677;-86
2023/05/17 13:57:45;;;;;;;4.03;2.60;;;;;;;16.53;67.69;99401.53;7657446;32;37744;-85
2023/05/17 14:02:03;;;;;;;3.55;2.42;;;;;;;16.03;69.25;99415.63;7657461;32;39974;-85
2023/05/17 14:06:19;;;;;;;6.03;2.62;;;;;;;16.19;69.28;99417.94;7657375;32;39786;-85
2023/05/17 14:10:36;;;;;;;2.75;2.00;;;;;;;16.29;68.31;99429.47;7657206;32;38776;-85
2023/05/17 14:14:52;;;;;;;2.53;2.17;;;;;;;16.13;68.97;99434.59;7657050;32;37082;-85
2023/05/17 14:19:08;;;;;;;6.72;2.30;;;;;;;15.95;69.48;99452.13;7657114;32;39390;-86
2023/05/17 14:23:25;;;;;;;2.75;2.08;;;;;;;15.83;69.65;99452.69;7657553;32;40821;-85
2023/05/17 14:27:41;;;;;;;2.17;2.00;;;;;;;15.95;69.07;99463.12;7659676;32;38559;-85
2023/05/17 14:31:57;;;;;;;3.50;2.05;;;;;;;15.98;68.44;99457.00;7683038;32;37910;-85
2023/05/17 14:36:14;;;;;;;4.22;2.10;;;;;;;15.25;70.85;99457.16;7682978;32;39300;-85
2023/05/17 14:40:31;;;;;;;9.50;2.10;;;;;;;15.34;70.73;99455.28;7682849;32;40874;-85
2023/05/17 14:44:47;;;;;;;2.53;1.90;;;;;;;15.26;71.18;99458.75;7682787;32;37691;-85
2023/05/17 14:49:05;;;;;;;5.35;1.87;;;;;;;15.39;70.11;99457.91;7682741;32;37781;-84
2023/05/17 14:53:22;;;;;;;3.33;2.03;;;;;;;14.25;74.24;99472.44;7682753;32;39108;-85
2023/05/17 14:57:38;;;;;;;4.53;1.90;;;;;;;14.79;72.77;99467.22;7683290;32;39899;-86
2023/05/17 15:01:55;;;;;;;2.12;1.90;;;;;;;14.55;73.30;99486.62;7659802;32;37893;-85
2023/05/17 15:06:11;;;;;;;2.00;1.75;;;;;;;14.75;73.03;99465.44;7659852;32;36929;-85
2023/05/17 15:10:28;;;;;;;1.80;1.70;;;;;;;14.70;73.16;99479.25;7659747;32;39335;-86
2023/05/17 15:14:46;;;;;;;1.80;1.60;;;;;;;14.07;75.07;99487.84;7665238;32;40668;-85
2023/05/17 15:19:03;;;;;;;2.50;1.67;;;;;;;14.46;73.47;99491.22;7685909;32;37922;-85
2023/05/17 15:23:19;;;;;;;2.40;1.80;;;;;;;14.66;73.18;99495.53;7686026;32;36872;-85
2023/05/17 15:27:36;;;;;;;4.37;1.85;;;;;;;14.04;75.10;99515.06;7685932;32;39286;-84
2023/05/17 15:31:52;;;;;;;3.35;1.67;;;;;;;14.74;72.79;99513.19;7685651;32;40850;-85
2023/05/17 15:36:10;;;;;;;2.92;1.80;;;;;;;14.65;72.67;99515.84;7685712;32;38128;-85
2023/05/17 15:40:28;;;;;;;2.35;1.70;;;;;;;14.78;71.60;99519.66;7672551;32;37041;-83
2023/05/17 15:44:44;;;;;;;3.50;1.90;;;;;;;14.63;72.17;99529.84;7685437;32;39288;-86
2023/05/17 15:49:00;;;;;;;6.22;3.42;;;;;;;14.23;73.47;99518.53;7685528;32;40767;-86
2023/05/17 15:53:17;;;;;;;5.57;2.90;;;;;;;14.14;73.58;99527.75;7685404;32;37865;-85
2023/05/17 15:57:33;;;;;;;6.15;2.50;;;;;;;13.88;74.82;99533.66;7685554;32;37136;-85
2023/05/17 16:01:49;;;;;;;2.65;1.92;;;;;;;14.06;74.22;99537.50;7663393;32;40322;-85
2023/05/17 16:06:06;;;;;;;2.17;1.83;;;;;;;13.61;75.08;99554.38;7658898;32;39913;-85
2023/05/17 16:10:22;;;;;;;2.35;2.00;;;;;;;13.70;74.98;99552.59;7659137;32;37935;-85
2023/05/17 16:14:39;;;;;;;3.70;2.10;;;;;;;13.81;74.44;99555.97;7645420;32;37763;-85
2023/05/17 16:18:56;;;;;;;3.03;2.10;;;;;;;13.56;74.90;99554.47;7658955;32;39386;-85
2023/05/17 16:23:12;;;;;;;4.72;2.10;;;;;;;13.68;74.70;99549.34;7658933;32;40178;-85
2023/05/17 16:27:29;;;;;;;5.30;2.10;;;;;;;13.92;73.12;99548.41;7659055;32;37856;-85
2023/05/17 16:31:47;;;;;;;7.62;2.33;;;;;;;13.99;73.40;99556.25;7665345;32;38451;-85
2023/05/17 16:36:04;;;;;;;4.35;2.10;;;;;;;13.74;73.21;99560.22;7685147;32;38433;-85
2023/05/17 16:40:20;;;;;;;3.85;1.75;;;;;;;14.09;72.81;99564.31;7685207;32;40864;-86
2023/05/17 16:44:37;;;;;;;2.12;1.80;;;;;;;13.93;72.80;99566.47;7685004;32;38572;-85
2023/05/17 16:48:54;;;;;;;3.60;2.20;;;;;;;14.38;71.33;99582.41;7673599;32;36838;-86
2023/05/17 16:53:11;;;;;;;3.17;2.20;;;;;;;14.10;72.18;99579.63;7658636;32;40166;-86
2023/05/17 16:57:28;;;;;;;2.05;1.80;;;;;;;14.15;71.58;99581.47;7658782;32;38151;-86
2023/05/17 17:01:44;;;;;;;2.30;1.85;;;;;;;14.35;70.74;99583.03;7658518;32;38725;-86
2023/05/17 17:06:01;;;;;;;2.35;2.05;;;;;;;14.56;69.81;99589.78;7658573;32;37155;-86
2023/05/17 17:10:18;;;;;;;2.72;1.98;;;;;;;14.35;70.29;99588.50;7658401;32;39338;-85
2023/05/17 17:14:35;;;;;;;3.12;2.42;;;;;;;14.05;71.22;99588.72;7658992;32;40726;-85
2023/05/17 17:18:52;;;;;;;2.92;2.40;;;;;;;14.22;70.55;99596.41;7657262;32;37904;-85
2023/05/17 17:23:08;;;;;;;3.03;2.50;;;;;;;14.32;70.14;99605.59;7658198;32;37274;-86
2023/05/17 17:27:24;;;;;;;4.57;2.15;;;;;;;14.13;70.43;99606.44;7658358;32;39385;-86
2023/05/17 17:31:41;;;;;;;2.17;1.98;;;;;;;13.99;70.68;99613.81;7657948;32;39948;-85
2023/05/17 17:35:57;;;;;;;3.35;1.92;;;;;;;13.41;71.90;99620.41;7671379;32;37650;-85
2023/05/17 17:40:13;;;;;;;3.25;2.00;;;;;;;14.01;70.34;99617.06;7684320;32;37929;-85
2023/05/17 17:44:30;;;;;;;2.25;1.90;;;;;;;14.04;69.99;99627.44;7684211;32;39228;-85
2023/05/17 17:48:46;;;;;;;4.47;2.50;;;;;;;13.83;70.02;99630.50;7684089;32;39964;-85
2023/05/17 17:53:02;;;;;;;6.07;2.40;;;;;;;13.69;69.88;99637.81;7683918;32;38715;-86
2023/05/17 17:57:20;;;;;;;4.93;2.40;;;;;;;13.46;70.67;99644.97;7666356;32;37256;-85
2023/05/17 18:01:38;;;;;;;3.08;2.37;;;;;;;13.41;71.28;99648.59;7663357;32;40983;-85
2023/05/17 18:05:54;;;;;;;5.12;2.60;;;;;;;13.73;69.76;99649.81;7681960;32;40007;-84
2023/05/17 18:10:10;;;;;;;3.30;2.40;;;;;;;13.77;68.84;99645.38;7683593;32;38039;-85
2023/05/17 18:14:27;;;;;;;5.85;2.78;;;;;;;13.25;70.74;99655.38;7657391;32;37806;-84
2023/05/17 18:18:43;;;;;;;5.62;2.58;;;;;;;13.71;69.56;99652.00;7656718;32;40553;-83
2023/05/17 18:22:59;;;;;;;2.92;2.37;;;;;;;13.39;70.31;99658.22;7658688;32;40684;-84
2023/05/17 18:27:18;;;;;;;8.18;3.08;;;;;;;12.91;71.42;99667.22;7655747;32;37844;-84
2023/05/17 18:31:36;;;;;;;3.85;2.70;;;;;;;13.41;69.89;99669.69;7665192;32;37030;-83
2023/05/17 18:35:54;;;;;;;7.30;2.90;;;;;;;13.39;70.06;99669.19;7659322;32;37947;-82
2023/05/17 18:40:11;;;;;;;5.25;3.08;;;;;;;13.19;70.14;99683.88;7659799;32;40014;-84
2023/05/17 18:44:27;;;;;;;5.07;3.03;;;;;;;13.31;69.30;99684.28;7658584;32;39004;-84
2023/05/17 18:48:43;;;;;;;6.15;2.50;;;;;;;13.34;69.46;99695.50;7662398;32;37945;-84
2023/05/17 18:53:00;;;;;;;4.30;2.70;;;;;;;13.73;67.98;99699.13;7682589;32;39283;-83
2023/05/17 18:57:16;;;;;;;4.57;3.28;;;;;;;13.77;68.17;99702.91;7680206;32;39902;-83
2023/05/17 19:01:32;;;;;;;3.67;2.75;;;;;;;13.52;68.62;99704.88;7685432;32;37959;-85
2023/05/17 19:05:49;;;;;;;6.72;2.60;;;;;;;13.46;68.30;99705.22;7671633;32;36980;-84
2023/05/17 19:10:06;;;;;;;2.70;2.40;;;;;;;13.49;68.65;99712.88;7680170;32;39418;-84
2023/05/17 19:14:22;;;;;;;4.32;2.72;;;;;;;13.77;67.58;99716.59;7658615;32;40822;-83
2023/05/17 19:18:38;;;;;;;5.53;3.08;;;;;;;13.73;67.67;99715.56;7683432;32;37948;-84
2023/05/17 19:22:55;;;;;;;3.37;2.55;;;;;;;13.75;67.07;99709.81;7685239;32;37068;-84
2023/05/17 19:27:15;;;;;;;6.10;2.80;;;;;;;13.79;66.82;99703.41;7680985;32;39433;-84
2023/05/17 19:31:33;;;;;;;5.57;3.30;;;;;;;13.40;68.33;99718.19;7684986;32;40704;-84
2023/05/17 19:35:49;;;;;;;3.95;2.78;;;;;;;13.61;67.94;99723.41;7669152;32;39214;-84
2023/05/17 19:40:06;;;;;;;5.57;2.62;;;;;;;13.71;67.48;99724.06;7656103;32;37725;-85
2023/05/17 19:44:24;;;;;;;4.85;2.65;;;;;;;13.66;67.09;99732.38;7665603;32;40202;-85
2023/05/17 19:48:42;;;;;;;5.35;3.35;;;;;;;13.71;67.15;99731.47;7666697;32;40731;-85
2023/05/17 19:52:58;;;;;;;3.67;2.78;;;;;;;13.90;67.00;99743.28;7670151;32;38625;-85
2023/05/17 19:57:14;;;;;;;8.85;3.40;;;;;;;14.03;66.58;99747.19;7666491;32;37118;-86
2023/05/17 20:01:30;;;;;;;7.07;3.15;;;;;;;13.42;68.93;99751.56;7671075;32;39426;-84
2023/05/17 20:05:48;;;;;;;6.25;3.47;;;;;;;13.58;67.74;99751.38;7664322;32;40769;-85